Time;durP1;ratioP1;P1;durP2;ratioP2;P2;SDS_P1;SDS_P2;PMS_P1;PMS_P2;Temp;Humidity;BMP_temperature;BMP_pressure;BME280_temperature;BME280_humidity;BME280_pressure;Samples;Min_cycle;Max_cycle;Signal;HPM_P1;HPM_P2
2024/01/24 00:00:30;;;;;;;7.53;1.70;;;11.00;99.90;;;;;;5073665;28;20127;-53
2024/01/24 00:02:56;;;;;;;7.30;1.83;;;11.10;99.90;;;;;;5074885;28;20063;-54
2024/01/24 00:05:22;;;;;;;6.20;1.38;;;11.10;99.90;;;;;;5074448;28;20404;-52
2024/01/24 00:07:47;;;;;;;10.17;2.00;;;11.10;99.90;;;;;;5056689;28;20044;-56
2024/01/24 00:10:13;;;;;;;9.17;1.80;;;11.00;99.90;;;;;;5073462;28;20052;-54
2024/01/24 00:12:39;;;;;;;8.17;1.87;;;11.00;99.90;;;;;;5074199;28;20131;-55
2024/01/24 00:15:05;;;;;;;9.73;2.67;;;11.10;99.90;;;;;;5074697;28;20044;-55
2024/01/24 00:17:31;;;;;;;7.18;1.52;;;11.10;99.90;;;;;;5074706;28;20412;-53
2024/01/24 00:19:56;;;;;;;7.40;1.97;;;11.00;99.90;;;;;;5074274;28;20050;-55
2024/01/24 00:22:22;;;;;;;5.50;1.33;;;11.00;99.90;;;;;;5074506;28;20076;-56
2024/01/24 00:24:47;;;;;;;6.40;1.43;;;11.00;99.90;;;;;;5074218;28;20044;-55
2024/01/24 00:27:13;;;;;;;6.90;1.30;;;11.00;99.90;;;;;;5073910;28;20048;-55
2024/01/24 00:29:39;;;;;;;7.17;2.20;;;11.00;99.90;;;;;;5075084;28;20134;-54
2024/01/24 00:32:05;;;;;;;7.13;2.20;;;11.00;99.90;;;;;;5074017;28;20399;-54
2024/01/24 00:34:31;;;;;;;10.23;2.27;;;11.00;99.90;;;;;;5074093;28;20041;-55
2024/01/24 00:36:56;;;;;;;11.00;1.83;;;11.00;99.90;;;;;;5074143;28;20071;-55
2024/01/24 00:39:22;;;;;;;12.40;1.30;;;11.00;99.90;;;;;;5074154;28;20533;-56
2024/01/24 00:41:48;;;;;;;11.83;1.60;;;11.00;99.90;;;;;;5074001;28;20045;-55
2024/01/24 00:44:14;;;;;;;9.60;2.20;;;11.00;99.90;;;;;;5073976;28;20044;-54
2024/01/24 00:46:41;;;;;;;9.95;1.85;;;11.00;99.90;;;;;;5074051;28;20119;-56
2024/01/24 00:49:12;;;;;;;8.43;1.40;;;11.00;99.90;;;;;;5073785;28;20048;-56
2024/01/24 00:51:38;;;;;;;6.60;1.65;;;11.00;99.90;;;;;;5073620;28;20048;-56
2024/01/24 00:54:03;;;;;;;10.43;2.50;;;11.00;99.90;;;;;;5072752;28;20049;-55
2024/01/24 00:56:29;;;;;;;9.20;1.97;;;11.00;99.90;;;;;;5073468;28;20676;-56
2024/01/24 00:58:55;;;;;;;8.85;1.73;;;11.00;99.90;;;;;;5056047;28;20058;-56
2024/01/24 01:01:21;;;;;;;12.97;1.50;;;11.00;99.90;;;;;;5073764;28;20036;-55
2024/01/24 01:03:47;;;;;;;10.67;1.57;;;11.00;99.90;;;;;;5073522;28;20106;-55
2024/01/24 01:06:12;;;;;;;8.20;1.63;;;11.00;99.90;;;;;;5073514;28;20041;-55
2024/01/24 01:08:38;;;;;;;13.10;1.57;;;11.10;99.90;;;;;;5073600;28;20469;-55
2024/01/24 01:11:05;;;;;;;6.30;1.20;;;11.10;99.90;;;;;;5073575;28;20051;-56
2024/01/24 01:13:32;;;;;;;;;;;11.10;99.90;;;;;;5090029;28;20537;-54
2024/01/24 01:15:58;;;;;;;8.90;1.48;;;11.10;99.90;;;;;;5073332;28;20314;-54
2024/01/24 01:18:24;;;;;;;8.83;2.30;;;11.00;99.90;;;;;;5073958;28;20048;-54
2024/01/24 01:20:49;;;;;;;7.27;1.53;;;11.00;99.90;;;;;;5072325;28;20396;-55
2024/01/24 01:23:15;;;;;;;7.30;1.33;;;11.00;99.90;;;;;;5077049;28;20053;-55
2024/01/24 01:25:41;;;;;;;7.83;1.13;;;11.00;99.90;;;;;;5077455;28;20127;-55
2024/01/24 01:28:06;;;;;;;6.17;1.10;;;11.00;99.90;;;;;;5077694;28;20048;-56
2024/01/24 01:30:32;;;;;;;12.07;1.83;;;11.00;99.90;;;;;;5077895;28;20415;-55
2024/01/24 01:32:58;;;;;;;8.37;1.10;;;11.00;99.90;;;;;;5076605;28;20044;-56
2024/01/24 01:35:23;;;;;;;11.20;1.73;;;11.00;99.90;;;;;;5077495;28;20052;-53
2024/01/24 01:37:49;;;;;;;13.70;1.90;;;11.00;99.90;;;;;;5077344;28;20047;-54
2024/01/24 01:40:14;;;;;;;8.47;1.00;;;11.00;99.90;;;;;;5077213;28;20446;-55
2024/01/24 01:42:44;;;;;;;7.50;1.27;;;11.10;99.90;;;;;;5077396;28;20437;-53
2024/01/24 01:45:10;;;;;;;5.30;1.17;;;11.10;99.90;;;;;;5077283;28;20044;-55
2024/01/24 01:47:36;;;;;;;10.15;1.52;;;11.10;99.90;;;;;;5077266;28;20113;-56
2024/01/24 01:50:03;;;;;;;7.68;1.42;;;11.20;99.90;;;;;;5077272;28;20048;-54
2024/01/24 01:52:31;;;;;;;8.20;1.30;;;11.20;99.90;;;;;;5076258;28;20476;-55
2024/01/24 01:54:56;;;;;;;7.63;1.27;;;11.20;99.90;;;;;;5076160;28;20400;-55
2024/01/24 01:57:22;;;;;;;7.25;1.15;;;11.30;99.90;;;;;;5077431;28;20040;-55
2024/01/24 01:59:48;;;;;;;4.63;1.23;;;11.30;99.90;;;;;;5076863;28;20174;-56
2024/01/24 02:02:15;;;;;;;5.13;0.90;;;11.30;99.90;;;;;;5075742;28;20294;-56
2024/01/24 02:04:41;;;;;;;7.22;1.27;;;11.40;99.90;;;;;;5075650;28;20385;-55
2024/01/24 02:07:06;;;;;;;6.75;1.02;;;11.40;99.90;;;;;;5076695;28;20056;-55
2024/01/24 02:09:33;;;;;;;4.83;0.90;;;11.50;99.90;;;;;;5076639;28;20052;-55
2024/01/24 02:11:58;;;;;;;4.70;0.90;;;11.50;99.90;;;;;;5076808;28;20326;-56
2024/01/24 02:14:24;;;;;;;6.37;1.07;;;11.60;99.90;;;;;;5076671;28;20129;-55
2024/01/24 02:16:50;;;;;;;4.57;0.80;;;11.60;99.90;;;;;;5076708;28;20476;-54
2024/01/24 02:19:16;;;;;;;6.57;1.17;;;11.60;99.90;;;;;;5076701;28;20052;-53
2024/01/24 02:21:41;;;;;;;7.22;1.20;;;11.70;99.90;;;;;;5076647;28;20044;-54
2024/01/24 02:24:16;;;;;;;2.67;0.70;;;11.70;99.90;;;;;;5076235;28;20507;-56
2024/01/24 02:26:42;;;;;;;5.43;0.60;;;11.70;99.90;;;;;;5076502;28;20040;-55
2024/01/24 02:29:08;;;;;;;6.72;1.23;;;11.70;99.90;;;;;;5076723;28;20416;-55
2024/01/24 02:31:34;;;;;;;10.27;1.80;;;11.70;99.90;;;;;;5076508;28;20080;-56
2024/01/24 02:34:00;;;;;;;5.18;1.00;;;11.80;99.90;;;;;;5075339;28;20062;-56
2024/01/24 02:36:25;;;;;;;7.73;1.33;;;11.80;99.90;;;;;;5076217;28;20546;-54
2024/01/24 02:38:51;;;;;;;7.30;0.93;;;11.90;99.90;;;;;;5076216;28;20040;-56
2024/01/24 02:41:19;;;;;;;5.67;0.90;;;11.80;99.90;;;;;;5076289;28;20053;-56
2024/01/24 02:43:44;;;;;;;7.82;1.20;;;11.80;99.90;;;;;;5075061;28;20041;-57
2024/01/24 02:46:10;;;;;;;7.10;0.90;;;11.80;99.90;;;;;;5076103;28;20182;-56
2024/01/24 02:48:36;;;;;;;4.17;0.80;;;11.80;99.90;;;;;;5076069;28;20127;-56
2024/01/24 02:51:01;;;;;;;5.90;0.93;;;11.80;99.90;;;;;;5075934;28;20044;-56
2024/01/24 02:53:27;;;;;;;4.60;0.80;;;11.80;99.90;;;;;;5076746;28;20551;-56
2024/01/24 02:55:53;;;;;;;6.90;1.07;;;11.80;99.90;;;;;;5075806;28;20048;-56
2024/01/24 02:58:18;;;;;;;5.10;0.90;;;11.80;99.90;;;;;;5075938;28;20052;-55
2024/01/24 03:00:44;;;;;;;6.70;1.00;;;11.80;99.90;;;;;;5075780;28;20055;-56
2024/01/24 03:03:10;;;;;;;5.63;1.00;;;11.80;99.90;;;;;;5075781;28;20052;-56
2024/01/24 03:05:35;;;;;;;6.40;1.33;;;11.70;99.90;;;;;;5075578;28;20045;-56
2024/01/24 03:08:02;;;;;;;8.00;1.40;;;11.70;99.90;;;;;;5075533;28;20196;-56
2024/01/24 03:10:28;;;;;;;10.00;1.70;;;11.70;99.90;;;;;;5075718;28;20101;-56
2024/01/24 03:12:54;;;;;;;7.70;1.00;;;11.70;99.90;;;;;;5075538;28;20040;-56
2024/01/24 03:15:20;;;;;;;9.23;1.33;;;11.70;99.90;;;;;;5075561;28;20036;-56
2024/01/24 03:17:46;;;;;;;6.47;1.10;;;11.60;99.90;;;;;;5075465;28;20131;-56
2024/01/24 03:20:13;;;;;;;3.80;0.90;;;11.60;99.90;;;;;;5075252;28;20083;-55
2024/01/24 03:22:40;;;;;;;9.35;1.20;;;11.60;99.90;;;;;;5075392;28;20502;-56
2024/01/24 03:25:06;;;;;;;8.23;1.25;;;11.50;99.90;;;;;;5075337;28;20479;-56
2024/01/24 03:27:32;;;;;;;9.25;1.10;;;11.50;99.90;;;;;;5075297;28;20559;-57
2024/01/24 03:29:58;;;;;;;6.57;1.13;;;11.40;99.90;;;;;;5075490;28;20140;-56
2024/01/24 03:32:23;;;;;;;8.95;1.38;;;11.40;99.90;;;;;;5074277;28;20064;-56
2024/01/24 03:34:56;;;;;;;7.83;1.40;;;11.40;99.90;;;;;;5073812;28;20087;-56
2024/01/24 03:37:22;;;;;;;4.97;1.10;;;11.30;99.90;;;;;;5075166;28;20053;-57
2024/01/24 03:39:47;;;;;;;11.43;1.60;;;11.20;99.90;;;;;;5074122;28;20051;-56
2024/01/24 03:42:13;;;;;;;7.60;1.73;;;11.20;99.90;;;;;;5075364;28;20500;-56
2024/01/24 03:44:39;;;;;;;8.20;1.30;;;11.20;99.90;;;;;;5074905;28;20078;-56
2024/01/24 03:47:05;;;;;;;8.50;1.30;;;11.10;99.90;;;;;;5074860;28;20287;-56
2024/01/24 03:49:31;;;;;;;10.68;1.75;;;11.10;99.90;;;;;;5074807;28;20117;-57
2024/01/24 03:51:57;;;;;;;8.25;1.65;;;11.10;99.90;;;;;;5074568;28;20488;-56
2024/01/24 03:54:23;;;;;;;8.73;1.35;;;11.10;99.90;;;;;;5073528;28;20134;-56
2024/01/24 03:56:49;;;;;;;16.10;2.87;;;11.10;99.90;;;;;;5074616;28;20083;-57
2024/01/24 03:59:15;;;;;;;12.45;1.40;;;11.10;99.90;;;;;;5074622;28;20060;-56
2024/01/24 04:01:40;;;;;;;9.45;1.30;;;11.20;99.90;;;;;;5074447;28;20048;-56
2024/01/24 04:04:07;;;;;;;8.47;1.23;;;11.10;99.90;;;;;;5074375;28;20131;-55
2024/01/24 04:06:33;;;;;;;7.03;1.38;;;11.20;99.90;;;;;;5075019;28;20356;-57
2024/01/24 04:08:59;;;;;;;9.20;0.95;;;11.10;99.90;;;;;;5074542;28;20048;-56
2024/01/24 04:11:24;;;;;;;9.38;1.48;;;11.10;99.90;;;;;;5074589;28;20044;-56
2024/01/24 04:13:53;;;;;;;11.87;1.57;;;11.20;99.90;;;;;;5073450;28;20110;-56
2024/01/24 04:16:19;;;;;;;13.13;1.80;;;11.20;99.90;;;;;;5074253;28;20045;-57
2024/01/24 04:18:45;;;;;;;10.13;1.48;;;11.20;99.90;;;;;;5074088;28;20057;-56
2024/01/24 04:21:11;;;;;;;7.18;1.30;;;11.20;99.90;;;;;;5073175;28;20048;-56
2024/01/24 04:23:37;;;;;;;10.47;2.20;;;11.20;99.90;;;;;;5074293;28;20118;-57
2024/01/24 04:26:04;;;;;;;10.60;1.70;;;11.20;99.90;;;;;;5074136;28;20120;-56
2024/01/24 04:28:31;;;;;;;11.75;2.03;;;11.20;99.90;;;;;;5073924;28;20543;-56
2024/01/24 04:30:56;;;;;;;11.88;1.80;;;11.10;99.90;;;;;;5073949;28;20420;-56
2024/01/24 04:33:22;;;;;;;10.53;2.73;;;11.10;99.90;;;;;;5073999;28;20055;-55
2024/01/24 04:35:48;;;;;;;11.80;1.87;;;11.10;99.90;;;;;;5074059;28;20495;-55
2024/01/24 04:38:14;;;;;;;13.30;2.20;;;11.10;99.90;;;;;;5074064;28;20044;-56
2024/01/24 04:40:39;;;;;;;18.95;2.00;;;11.00;99.90;;;;;;5074165;28;20392;-56
2024/01/24 04:43:07;;;;;;;7.00;1.40;;;11.00;99.90;;;;;;5074269;28;20051;-56
2024/01/24 04:45:32;;;;;;;11.50;2.00;;;10.90;99.90;;;;;;5073733;28;20044;-57
2024/01/24 04:47:58;;;;;;;13.37;2.37;;;10.90;99.90;;;;;;5073730;28;20514;-55
2024/01/24 04:50:24;;;;;;;10.33;1.93;;;10.90;99.90;;;;;;5073834;28;20396;-55
2024/01/24 04:52:49;;;;;;;14.70;2.00;;;10.90;99.90;;;;;;5073888;28;20491;-56
2024/01/24 04:55:15;;;;;;;9.87;2.13;;;10.80;99.90;;;;;;5073798;28;20055;-56
2024/01/24 04:57:42;;;;;;;14.20;2.30;;;10.80;99.90;;;;;;5073073;28;20051;-56
2024/01/24 05:00:08;;;;;;;12.57;2.38;;;10.70;99.90;;;;;;5073565;28;20044;-56
2024/01/24 05:02:34;;;;;;;;;;;10.70;99.90;;;;;;5074081;28;20099;-55
2024/01/24 05:05:00;;;;;;;9.95;1.90;;;10.70;99.90;;;;;;5074025;28;19979;-56
2024/01/24 05:07:26;;;;;;;8.50;2.03;;;10.70;99.90;;;;;;5073704;28;20076;-56
2024/01/24 05:09:51;;;;;;;12.80;2.53;;;10.70;99.90;;;;;;5072507;28;20052;-56
2024/01/24 05:12:17;;;;;;;12.10;1.73;;;10.70;99.90;;;;;;5055908;28;20052;-57
2024/01/24 05:14:43;;;;;;;14.83;1.87;;;10.70;99.90;;;;;;5073621;28;20778;-57
2024/01/24 05:17:09;;;;;;;15.57;2.90;;;10.70;99.90;;;;;;5073478;28;20131;-56
2024/01/24 05:19:35;;;;;;;15.63;3.00;;;10.70;99.90;;;;;;5073565;28;20097;-56
2024/01/24 05:22:01;;;;;;;12.15;2.50;;;10.70;99.90;;;;;;5072534;28;20053;-56
2024/01/24 05:24:26;;;;;;;9.17;1.97;;;10.70;99.90;;;;;;5073394;28;20093;-57
2024/01/24 05:26:52;;;;;;;9.37;2.53;;;10.60;99.90;;;;;;5073354;28;20050;-56
2024/01/24 05:29:18;;;;;;;16.00;2.50;;;10.60;99.90;;;;;;5073294;28;20561;-57
2024/01/24 05:31:44;;;;;;;15.27;3.20;;;10.60;99.90;;;;;;5073250;28;20048;-56
2024/01/24 05:34:09;;;;;;;15.57;2.60;;;10.60;99.90;;;;;;5073448;28;20274;-56
2024/01/24 05:36:36;;;;;;;16.27;3.55;;;10.60;99.90;;;;;;5072617;28;20048;-56
2024/01/24 05:39:03;;;;;;;13.55;3.15;;;10.70;99.90;;;;;;5073153;28;20510;-56
2024/01/24 05:41:28;;;;;;;17.58;3.28;;;10.70;99.90;;;;;;5072016;28;20079;-56
2024/01/24 05:43:54;;;;;;;17.60;2.90;;;10.70;99.90;;;;;;5073396;28;20087;-56
2024/01/24 05:46:20;;;;;;;20.30;3.13;;;10.60;99.90;;;;;;5072934;28;20399;-56
2024/01/24 05:48:45;;;;;;;10.13;2.43;;;10.60;99.90;;;;;;5073521;28;20524;-55
2024/01/24 05:51:11;;;;;;;14.80;2.53;;;10.60;99.90;;;;;;5072310;28;20492;-57
2024/01/24 05:53:41;;;;;;;12.48;2.92;;;10.60;99.90;;;;;;5073137;28;20420;-56
2024/01/24 05:56:07;;;;;;;12.32;2.70;;;10.60;99.90;;;;;;5073130;28;20040;-56
2024/01/24 05:58:34;;;;;;;14.45;2.25;;;10.60;99.90;;;;;;5073210;28;20040;-55
2024/01/24 06:01:00;;;;;;;14.38;1.90;;;10.60;99.90;;;;;;5071982;28;20058;-55
2024/01/24 06:03:25;;;;;;;14.50;2.77;;;10.60;99.90;;;;;;5073340;28;20053;-56
2024/01/24 06:05:51;;;;;;;16.27;2.47;;;10.60;99.90;;;;;;5072938;28;20047;-57
2024/01/24 06:08:16;;;;;;;21.07;5.73;;;10.50;99.90;;;;;;5074693;28;20049;-56
2024/01/24 06:10:42;;;;;;;16.87;3.33;;;10.50;99.90;;;;;;5076776;28;20080;-56
2024/01/24 06:13:08;;;;;;;14.47;3.10;;;10.50;99.90;;;;;;5076690;28;20057;-56
2024/01/24 06:15:33;;;;;;;11.50;2.73;;;10.50;99.90;;;;;;5076660;28;20055;-56
2024/01/24 06:17:59;;;;;;;16.77;2.93;;;10.40;99.90;;;;;;5076688;28;20051;-56
2024/01/24 06:20:25;;;;;;;11.83;2.87;;;10.40;99.90;;;;;;5076659;28;20044;-56
2024/01/24 06:22:50;;;;;;;16.53;3.30;;;10.40;99.90;;;;;;5076569;28;20044;-56
2024/01/24 06:25:16;;;;;;;17.87;2.90;;;10.40;99.90;;;;;;5076427;28;20043;-57
2024/01/24 06:27:42;;;;;;;14.90;2.40;;;10.40;99.90;;;;;;5076289;28;20051;-56
2024/01/24 06:30:11;;;;;;;17.55;3.47;;;10.40;99.90;;;;;;5076358;28;20057;-56
2024/01/24 06:32:37;;;;;;;18.55;2.67;;;10.40;99.90;;;;;;5076410;28;20119;-56
2024/01/24 06:35:03;;;;;;;18.23;2.63;;;10.30;99.90;;;;;;5076796;28;20423;-55
2024/01/24 06:37:28;;;;;;;9.77;2.90;;;10.30;99.90;;;;;;5076247;28;20136;-56
2024/01/24 06:39:54;;;;;;;18.90;3.50;;;10.30;99.90;;;;;;5076330;28;20131;-57
2024/01/24 06:42:20;;;;;;;15.57;2.60;;;10.30;99.90;;;;;;5076283;28;20040;-56
2024/01/24 06:44:46;;;;;;;16.37;2.93;;;10.20;99.90;;;;;;5074843;28;20049;-56
2024/01/24 06:47:11;;;;;;;18.85;3.22;;;10.20;99.90;;;;;;5075770;28;20049;-55
2024/01/24 06:49:37;;;;;;;22.07;3.20;;;10.20;99.90;;;;;;5076107;28;20105;-55
2024/01/24 06:52:03;;;;;;;15.90;3.83;;;10.10;99.90;;;;;;5076135;28;20048;-55
2024/01/24 06:54:29;;;;;;;20.40;4.10;;;10.10;99.90;;;;;;5075842;28;20052;-56
2024/01/24 06:56:54;;;;;;;15.40;2.83;;;10.10;99.90;;;;;;5076005;28;20055;-56
2024/01/24 06:59:20;;;;;;;14.30;2.10;;;10.10;99.90;;;;;;5075809;28;20041;-55
2024/01/24 07:01:46;;;;;;;18.30;3.40;;;10.10;99.90;;;;;;5075737;28;20052;-56
2024/01/24 07:04:11;;;;;;;14.83;3.10;;;10.10;99.90;;;;;;5074778;28;20127;-56
2024/01/24 07:06:37;;;;;;;19.33;3.73;;;10.10;99.90;;;;;;5075801;28;20044;-56
2024/01/24 07:09:03;;;;;;;22.57;4.30;;;10.10;99.90;;;;;;5075699;28;20131;-56
2024/01/24 07:11:28;;;;;;;20.57;4.10;;;10.10;99.90;;;;;;5075796;28;20051;-56
2024/01/24 07:13:54;;;;;;;19.13;3.20;;;10.10;99.90;;;;;;5075627;28;20044;-56
2024/01/24 07:16:20;;;;;;;15.53;3.20;;;10.10;99.90;;;;;;5075652;28;20154;-56
2024/01/24 07:18:45;;;;;;;14.60;2.83;;;10.10;99.90;;;;;;5075667;28;20423;-55
2024/01/24 07:21:11;;;;;;;13.03;2.57;;;10.00;99.90;;;;;;5075288;28;20133;-56
2024/01/24 07:23:37;;;;;;;16.63;3.33;;;10.00;99.90;;;;;;5075630;28;20049;-55
2024/01/24 07:26:03;;;;;;;13.30;2.67;;;10.00;99.90;;;;;;5075176;28;20547;-56
2024/01/24 07:28:29;;;;;;;14.70;3.43;;;10.00;99.90;;;;;;5075309;28;20056;-56
2024/01/24 07:30:55;;;;;;;19.58;3.45;;;10.00;99.90;;;;;;5074472;28;20384;-54
2024/01/24 07:33:22;;;;;;;19.17;3.15;;;10.00;99.90;;;;;;5075306;28;20090;-56
2024/01/24 07:35:47;;;;;;;17.70;2.90;;;10.00;99.90;;;;;;5075417;28;20044;-56
2024/01/24 07:38:13;;;;;;;14.40;2.37;;;10.00;99.90;;;;;;5075520;28;20422;-56
2024/01/24 07:40:39;;;;;;;18.73;3.30;;;9.90;99.90;;;;;;5075197;28;20049;-56
2024/01/24 07:43:05;;;;;;;15.27;4.07;;;9.90;99.90;;;;;;5075028;28;20131;-55
2024/01/24 07:45:30;;;;;;;19.33;3.05;;;9.90;99.90;;;;;;5075027;28;20049;-56
2024/01/24 07:47:56;;;;;;;17.70;3.37;;;9.90;99.90;;;;;;5075082;28;20040;-56
2024/01/24 07:50:22;;;;;;;15.90;2.83;;;9.90;99.90;;;;;;5075040;28;20622;-56
2024/01/24 07:52:48;;;;;;;16.45;3.70;;;9.90;99.90;;;;;;5074943;28;20555;-55
2024/01/24 07:55:14;;;;;;;16.53;2.63;;;9.90;99.90;;;;;;5074773;28;20041;-55
2024/01/24 07:57:40;;;;;;;20.13;4.22;;;9.90;99.90;;;;;;5074678;28;20067;-55
2024/01/24 08:00:06;;;;;;;20.25;3.15;;;9.90;99.90;;;;;;5074792;28;20048;-56
2024/01/24 08:02:32;;;;;;;18.02;2.60;;;9.90;99.90;;;;;;5074522;28;20476;-56
2024/01/24 08:04:58;;;;;;;14.33;2.50;;;9.90;99.90;;;;;;5074609;28;20044;-56
2024/01/24 08:07:24;;;;;;;18.48;2.95;;;9.80;99.90;;;;;;5074619;28;20121;-54
2024/01/24 08:09:50;;;;;;;15.82;3.15;;;9.90;99.90;;;;;;5074506;28;20044;-53
2024/01/24 08:12:16;;;;;;;15.97;3.23;;;9.80;99.90;;;;;;5074262;28;20439;-54
2024/01/24 08:14:42;;;;;;;14.57;2.67;;;9.80;99.90;;;;;;5074836;28;20086;-54
2024/01/24 08:17:10;;;;;;;16.90;2.63;;;9.80;99.90;;;;;;5074827;28;20496;-55
2024/01/24 08:19:38;;;;;;;19.45;2.92;;;9.80;99.90;;;;;;5074432;28;20106;-56
2024/01/24 08:22:04;;;;;;;19.08;3.40;;;9.80;99.90;;;;;;5074425;28;20053;-55
2024/01/24 08:24:30;;;;;;;21.65;3.33;;;9.80;99.90;;;;;;5073171;28;20044;-55
2024/01/24 08:26:56;;;;;;;14.55;2.63;;;9.80;99.90;;;;;;5074082;28;20124;-53
2024/01/24 08:29:25;;;;;;;18.87;2.83;;;9.80;99.90;;;;;;5074441;28;20140;-55
2024/01/24 08:31:51;;;;;;;16.48;3.15;;;9.90;99.90;;;;;;5073334;28;20056;-55
2024/01/24 08:34:17;;;;;;;18.77;3.37;;;9.90;99.90;;;;;;5074206;28;20044;-55
2024/01/24 08:36:43;;;;;;;;;;;9.90;99.90;;;;;;5074363;28;20044;-55
2024/01/24 08:39:10;;;;;;;15.80;3.53;;;9.80;99.90;;;;;;5074046;28;20268;-56
2024/01/24 08:41:36;;;;;;;13.63;2.60;;;9.80;99.90;;;;;;5072810;28;20059;-55
2024/01/24 08:44:02;;;;;;;22.13;3.05;;;9.80;99.90;;;;;;5072842;28;20048;-55
2024/01/24 08:46:28;;;;;;;19.70;3.58;;;9.80;99.90;;;;;;5074121;28;20052;-54
2024/01/24 08:48:53;;;;;;;16.00;2.53;;;9.80;99.90;;;;;;5073919;28;20484;-55
2024/01/24 08:51:21;;;;;;;18.97;4.37;;;9.80;99.90;;;;;;5072625;28;20052;-54
2024/01/24 08:53:46;;;;;;;17.27;2.83;;;9.90;99.90;;;;;;5073646;28;20095;-55
2024/01/24 08:56:13;;;;;;;15.10;2.73;;;9.90;99.90;;;;;;5073718;28;20079;-54
2024/01/24 08:58:39;;;;;;;;;;;9.90;99.90;;;;;;5074211;28;20055;-55
2024/01/24 09:01:06;;;;;;;15.77;3.78;;;9.80;99.90;;;;;;5073779;28;20015;-54
2024/01/24 09:03:31;;;;;;;;;;;9.80;99.90;;;;;;5074078;28;20055;-55
2024/01/24 09:05:57;;;;;;;18.85;3.28;;;9.80;99.90;;;;;;5073502;28;19924;-53
2024/01/24 09:08:23;;;;;;;14.63;2.67;;;9.80;99.90;;;;;;5073759;28;20046;-54
2024/01/24 09:10:48;;;;;;;21.60;3.58;;;9.90;99.90;;;;;;5073450;28;20109;-53
2024/01/24 09:13:19;;;;;;;19.07;3.67;;;9.90;99.90;;;;;;5073721;28;20097;-54
2024/01/24 09:15:45;;;;;;;20.55;2.95;;;9.90;99.90;;;;;;5073653;28;20044;-54
2024/01/24 09:18:10;;;;;;;18.77;2.80;;;9.90;99.90;;;;;;5073522;28;20126;-55
2024/01/24 09:20:36;;;;;;;14.33;2.50;;;9.90;99.90;;;;;;5072435;28;20052;-56
2024/01/24 09:23:02;;;;;;;17.33;3.50;;;9.90;99.90;;;;;;5073549;28;20048;-54
2024/01/24 09:25:27;;;;;;;16.37;3.47;;;9.90;99.90;;;;;;5073204;28;20048;-54
2024/01/24 09:27:53;;;;;;;12.63;2.60;;;9.90;99.90;;;;;;5073431;28;20113;-55
2024/01/24 09:30:20;;;;;;;17.45;3.03;;;9.90;99.90;;;;;;5073542;28;20057;-54
2024/01/24 09:32:46;;;;;;;17.60;2.63;;;9.90;99.90;;;;;;5073553;28;20119;-55
2024/01/24 09:35:11;;;;;;;17.98;3.13;;;9.90;99.90;;;;;;5073358;28;20602;-53
2024/01/24 09:37:37;;;;;;;18.80;3.07;;;10.00;99.90;;;;;;5073286;28;20102;-56
2024/01/24 09:40:04;;;;;;;12.40;2.80;;;10.00;99.90;;;;;;5073370;28;20048;-56
2024/01/24 09:42:32;;;;;;;14.98;2.95;;;10.00;99.90;;;;;;5073739;28;20052;-55
2024/01/24 09:44:58;;;;;;;14.50;2.50;;;10.00;99.90;;;;;;5077311;28;20048;-55
2024/01/24 09:47:24;;;;;;;15.75;2.85;;;10.10;99.90;;;;;;5077550;28;20040;-55
2024/01/24 09:49:51;;;;;;;14.23;3.10;;;10.00;99.90;;;;;;5077335;28;20054;-55
2024/01/24 09:52:24;;;;;;;16.77;3.08;;;10.00;99.90;;;;;;5077262;28;20047;-55
2024/01/24 09:54:56;;;;;;;16.83;2.63;;;10.00;99.90;;;;;;5076364;28;20044;-54
2024/01/24 09:57:22;;;;;;;13.25;2.28;;;10.10;99.90;;;;;;5077783;28;20098;-53
2024/01/24 09:59:48;;;;;;;16.17;3.20;;;10.10;99.90;;;;;;5077235;28;20056;-54
2024/01/24 10:02:14;;;;;;;24.50;3.53;;;10.10;99.90;;;;;;5076995;28;20053;-54
2024/01/24 10:04:43;;;;;;;13.90;3.00;;;10.10;99.90;;;;;;5076853;28;20507;-54
2024/01/24 10:07:10;;;;;;;14.10;2.47;;;10.10;99.90;;;;;;5076720;28;20127;-55
2024/01/24 10:09:36;;;;;;;14.45;3.35;;;10.10;99.90;;;;;;5076921;28;20071;-55
2024/01/24 10:12:01;;;;;;;19.75;4.35;;;10.10;99.90;;;;;;5077198;28;20052;-55
2024/01/24 10:14:28;;;;;;;15.20;2.37;;;10.20;99.90;;;;;;5076740;28;20115;-55
2024/01/24 10:16:53;;;;;;;14.43;2.85;;;10.20;99.90;;;;;;5075787;28;20433;-54
2024/01/24 10:19:25;;;;;;;22.60;3.33;;;10.20;99.90;;;;;;5076797;28;20060;-55
2024/01/24 10:21:54;;;;;;;19.55;3.30;;;10.30;99.90;;;;;;5076621;28;20757;-55
2024/01/24 10:24:21;;;;;;;21.63;3.20;;;10.30;99.90;;;;;;5076678;28;20480;-54
2024/01/24 10:26:47;;;;;;;14.40;2.95;;;10.30;99.90;;;;;;5076567;28;20079;-55
2024/01/24 10:29:13;;;;;;;18.23;2.77;;;10.30;99.90;;;;;;5076427;28;20515;-56
2024/01/24 10:31:39;;;;;;;21.17;4.05;;;10.40;99.90;;;;;;5076403;28;20044;-55
2024/01/24 10:34:06;;;;;;;18.03;2.83;;;10.40;99.90;;;;;;5075057;28;20506;-56
2024/01/24 10:36:32;;;;;;;19.83;3.30;;;10.40;99.90;;;;;;5076373;28;20052;-55
2024/01/24 10:38:59;;;;;;;;;;;10.30;99.90;;;;;;5076899;28;20059;-55
2024/01/24 10:41:29;;;;;;;10.05;1.90;;;10.40;99.90;;;;;;5076300;28;19924;-54
2024/01/24 10:43:57;;;;;;;13.98;2.60;;;10.40;99.90;;;;;;5076379;28;20052;-55
2024/01/24 10:46:23;;;;;;;14.32;2.53;;;10.30;99.90;;;;;;5076046;28;20048;-55
2024/01/24 10:48:51;;;;;;;13.27;2.78;;;10.40;99.90;;;;;;5076025;28;20048;-52
2024/01/24 10:51:18;;;;;;;17.38;2.83;;;10.40;99.90;;;;;;5076365;28;20053;-54
2024/01/24 10:53:45;;;;;;;23.10;3.08;;;10.40;99.90;;;;;;5075079;28;20062;-54
2024/01/24 10:56:15;;;;;;;12.90;2.65;;;10.40;99.90;;;;;;5075364;28;20098;-54
2024/01/24 10:58:42;;;;;;;11.70;2.78;;;10.40;99.90;;;;;;5076062;28;20041;-53
2024/01/24 11:01:08;;;;;;;20.23;2.88;;;10.50;99.90;;;;;;5075992;28;20083;-55
2024/01/24 11:03:34;;;;;;;20.00;2.78;;;10.40;99.90;;;;;;5075712;28;20110;-54
2024/01/24 11:06:05;;;;;;;18.95;2.50;;;10.40;99.90;;;;;;5075794;28;20131;-55
2024/01/24 11:08:37;;;;;;;14.88;2.42;;;10.40;99.90;;;;;;5076232;28;20087;-54
2024/01/24 11:11:07;;;;;;;13.60;2.20;;;10.40;99.90;;;;;;5075915;28;20400;-54
2024/01/24 11:13:37;;;;;;;14.23;2.30;;;10.50;99.90;;;;;;5075760;28;20048;-53
2024/01/24 11:16:25;;;;;;;16.15;2.88;;;10.50;99.90;;;;;;5075508;28;20480;-52
2024/01/24 11:18:52;;;;;;;12.98;2.55;;;10.50;99.90;;;;;;5075347;28;20105;-54
2024/01/24 11:21:23;;;;;;;14.07;2.20;;;10.40;99.90;;;;;;5075515;28;20040;-55
2024/01/24 11:23:49;;;;;;;8.95;2.30;;;10.50;99.90;;;;;;5075408;28;20048;-55
2024/01/24 11:26:18;;;;;;;13.37;2.60;;;10.40;99.90;;;;;;5057566;28;20048;-55
2024/01/24 11:28:45;;;;;;;13.90;3.17;;;10.50;99.90;;;;;;5075373;28;20068;-55
2024/01/24 11:31:11;;;;;;;10.68;2.10;;;10.40;99.90;;;;;;5075332;28;20052;-55
2024/01/24 11:34:09;;;;;;;14.77;2.45;;;10.40;99.90;;;;;;5075323;28;20131;-54
2024/01/24 11:36:53;;;;;;;13.23;2.17;;;10.40;99.90;;;;;;5075155;28;20044;-55
2024/01/24 11:39:37;;;;;;;13.32;2.45;;;10.40;99.90;;;;;;5075034;28;20480;-54
2024/01/24 11:42:42;;;;;;;21.10;2.47;;;10.30;99.90;;;;;;5075198;28;20060;-54
2024/01/24 11:45:19;;;;;;;17.50;3.03;;;10.40;99.90;;;;;;5036326;28;20052;-54
2024/01/24 11:47:46;;;;;;;15.75;2.33;;;10.40;99.90;;;;;;5072491;28;20060;-56
2024/01/24 11:50:13;;;;;;;10.23;2.78;;;10.40;99.90;;;;;;5074039;28;20080;-55
2024/01/24 11:52:39;;;;;;;18.02;2.65;;;10.40;99.90;;;;;;5075007;28;20106;-55
2024/01/24 11:55:06;;;;;;;15.65;3.05;;;10.40;99.90;;;;;;5073975;28;20474;-54
2024/01/24 11:57:31;;;;;;;10.00;1.73;;;10.40;99.90;;;;;;5090690;28;20056;-55
2024/01/24 11:59:57;;;;;;;21.03;2.83;;;10.30;99.90;;;;;;5074559;28;20055;-55
2024/01/24 12:02:23;;;;;;;16.90;2.20;;;10.20;99.90;;;;;;5073857;28;20061;-54
2024/01/24 12:04:52;;;;;;;13.33;2.03;;;10.20;99.90;;;;;;5074623;28;20518;-54
2024/01/24 12:07:19;;;;;;;16.63;2.53;;;10.20;99.90;;;;;;5074368;28;20045;-53
2024/01/24 12:09:45;;;;;;;17.35;2.78;;;10.30;99.90;;;;;;5074605;28;20507;-55
2024/01/24 12:12:12;;;;;;;15.13;2.42;;;10.20;99.90;;;;;;5074538;28;20052;-55
2024/01/24 12:14:40;;;;;;;17.27;2.65;;;10.20;99.90;;;;;;5074500;28;20048;-55
2024/01/24 12:17:07;;;;;;;16.75;3.28;;;10.30;99.90;;;;;;5074492;28;20048;-55
2024/01/24 12:19:33;;;;;;;15.07;2.30;;;10.30;99.90;;;;;;5074346;28;20049;-54
2024/01/24 12:22:00;;;;;;;;;;;10.20;99.90;;;;;;5073724;28;20052;-52
2024/01/24 12:24:26;;;;;;;19.13;2.65;;;10.20;99.90;;;;;;5074240;28;19935;-53
2024/01/24 12:26:52;;;;;;;;;;;10.20;99.90;;;;;;5074527;28;20076;-55
2024/01/24 12:29:18;;;;;;;15.27;2.85;;;10.20;99.90;;;;;;5073153;28;20375;-55
2024/01/24 12:31:46;;;;;;;15.13;2.80;;;10.30;99.90;;;;;;5074273;28;20055;-55
2024/01/24 12:34:12;;;;;;;11.77;2.65;;;10.40;99.90;;;;;;5073210;28;20547;-56
2024/01/24 12:36:37;;;;;;;9.70;2.20;;;10.40;99.90;;;;;;5074178;28;20131;-55
2024/01/24 12:39:06;;;;;;;16.67;2.77;;;10.40;99.90;;;;;;5074072;28;20366;-56